Time;durP1;ratioP1;P1;durP2;ratioP2;P2;SDS_P1;SDS_P2;PMS_P1;PMS_P2;Temp;Humidity;BMP_temperature;BMP_pressure;BME280_temperature;BME280_humidity;BME280_pressure;Samples;Min_cycle;Max_cycle;Signal;HPM_P1;HPM_P2
2022/05/16 00:01:49;;;;;;;142.35;7.82;;;;;;;16.42;61.79;101303.41;5006251;28;21009;-64
2022/05/16 00:04:15;;;;;;;66.82;45.00;;;;;;;16.37;62.10;101308.41;5008882;28;20120;-64
2022/05/16 00:06:40;;;;;;;0.95;0.55;;;;;;;16.36;62.02;101304.91;4990394;28;20084;-64
2022/05/16 00:09:06;;;;;;;0.63;0.30;;;;;;;16.37;61.97;101298.34;5010141;28;20034;-64
2022/05/16 00:11:32;;;;;;;0.40;0.28;;;;;;;16.34;62.32;101303.75;5008788;28;20080;-63
2022/05/16 00:13:58;;;;;;;1.58;0.35;;;;;;;16.32;62.69;101303.34;5009812;28;20519;-64
2022/05/16 00:16:23;;;;;;;3.05;0.55;;;;;;;16.29;62.86;101304.88;5011031;28;20045;-64
2022/05/16 00:18:49;;;;;;;0.77;0.75;;;;;;;16.29;63.15;101313.03;5008147;28;20038;-63
2022/05/16 00:21:16;;;;;;;1.05;0.40;;;;;;;16.24;63.37;101314.16;5008938;28;20045;-64
2022/05/16 00:23:41;;;;;;;0.20;0.20;;;;;;;16.20;63.85;101318.78;5008104;28;20066;-64
2022/05/16 00:26:06;;;;;;;1.23;0.55;;;;;;;16.12;64.16;101314.44;5010355;28;20076;-64
2022/05/16 00:28:32;;;;;;;0.45;0.32;;;;;;;16.18;64.12;101320.31;5010371;28;20172;-63
2022/05/16 00:30:57;;;;;;;0.70;0.55;;;;;;;16.10;64.52;101308.59;5010472;28;20500;-64
2022/05/16 00:33:23;;;;;;;1.90;0.77;;;;;;;16.06;64.91;101315.97;5010389;28;20025;-64
2022/05/16 00:35:48;;;;;;;1.33;0.47;;;;;;;16.04;64.77;101318.25;5008651;28;20520;-63
2022/05/16 00:38:13;;;;;;;0.45;0.30;;;;;;;15.98;65.15;101321.69;5010512;28;20034;-64
2022/05/16 00:40:39;;;;;;;0.40;0.40;;;;;;;15.90;65.85;101326.28;5008015;28;20408;-64
2022/05/16 00:43:11;;;;;;;0.35;0.32;;;;;;;15.92;65.90;101323.19;5008875;28;20034;-64
2022/05/16 00:45:38;;;;;;;0.28;0.28;;;;;;;15.91;66.04;101321.63;5009415;28;20397;-64
2022/05/16 00:48:04;;;;;;;1.35;0.35;;;;;;;15.83;66.20;101320.75;5006096;28;20033;-64
2022/05/16 00:50:32;;;;;;;6.30;0.85;;;;;;;15.82;66.78;101316.50;5009890;28;20041;-64
2022/05/16 00:52:58;;;;;;;1.13;0.40;;;;;;;15.80;66.65;101313.38;5006867;28;20392;-64
2022/05/16 00:55:36;;;;;;;0.40;0.40;;;;;;;15.82;67.00;101321.13;5007869;28;20136;-64
2022/05/16 00:58:09;;;;;;;0.30;0.30;;;;;;;15.75;67.01;101313.72;5004522;28;20041;-65
2022/05/16 01:00:38;;;;;;;1.50;0.65;;;;;;;15.72;67.39;101311.72;5008524;28;20026;-64
2022/05/16 01:05:52;;;;;;;0.30;0.30;;;;;;;15.71;67.27;101307.47;5001124;28;20056;-63
2022/05/16 01:08:22;;;;;;;0.60;0.60;;;;;;;15.71;67.29;101307.47;5008847;28;20099;-63
2022/05/16 01:10:48;;;;;;;0.20;0.20;;;;;;;15.67;67.65;101306.66;5008363;28;20100;-63
2022/05/16 01:13:14;;;;;;;0.50;0.40;;;;;;;15.68;67.51;101299.28;5007663;28;20507;-63
2022/05/16 01:15:48;;;;;;;0.30;0.30;;;;;;;15.65;67.74;101295.38;4994666;28;20114;-63
2022/05/16 01:18:20;;;;;;;0.63;0.40;;;;;;;15.64;67.91;101290.31;5009634;28;20113;-63
2022/05/16 01:21:04;;;;;;;0.40;0.40;;;;;;;15.56;68.13;101284.06;5007104;28;20492;-63
2022/05/16 01:23:42;;;;;;;0.70;0.65;;;;;;;15.50;67.61;101290.19;5003887;28;20045;-63
2022/05/16 01:26:12;;;;;;;1.25;0.50;;;;;;;15.49;68.19;101289.38;5009948;28;20547;-63
2022/05/16 01:28:38;;;;;;;0.85;0.40;;;;;;;15.50;67.93;101282.03;5009607;28;20500;-63
2022/05/16 01:31:04;;;;;;;0.77;0.38;;;;;;;15.47;68.26;101277.31;4992554;28;20022;-63
2022/05/16 01:33:29;;;;;;;0.50;0.40;;;;;;;15.50;68.03;101273.88;5009597;28;20034;-63
2022/05/16 01:35:55;;;;;;;0.85;0.45;;;;;;;15.40;68.62;101269.88;5005249;28;20021;-63
2022/05/16 01:38:23;;;;;;;6.13;0.55;;;;;;;15.39;68.43;101260.94;5006894;28;20831;-63
2022/05/16 01:40:56;;;;;;;0.85;0.60;;;;;;;15.37;68.51;101267.88;5009186;28;20030;-63
2022/05/16 01:43:26;;;;;;;2.30;0.60;;;;;;;15.34;68.35;101263.22;4991716;28;20030;-64
2022/05/16 01:45:51;;;;;;;0.75;0.45;;;;;;;15.26;69.26;101258.84;5008696;28;20053;-63
2022/05/16 01:48:18;;;;;;;3.20;0.30;;;;;;;15.24;69.28;101253.03;4990918;28;20022;-64
2022/05/16 01:50:45;;;;;;;0.40;0.40;;;;;;;15.24;69.32;101258.44;5005993;28;20485;-63
2022/05/16 01:53:23;;;;;;;0.57;0.28;;;;;;;15.23;69.30;101256.91;5009329;28;20123;-63
2022/05/16 01:55:48;;;;;;;2.40;0.82;;;;;;;15.19;69.41;101250.66;5005415;28;20030;-63
2022/05/16 01:58:14;;;;;;;0.30;0.30;;;;;;;15.14;69.37;101250.97;5009407;28;20029;-64
2022/05/16 02:00:40;;;;;;;0.60;0.50;;;;;;;15.08;69.71;101247.81;4991114;28;20038;-63
2022/05/16 02:03:05;;;;;;;0.95;0.35;;;;;;;15.07;69.96;101242.75;4990579;28;20409;-63
2022/05/16 02:05:32;;;;;;;0.25;0.20;;;;;;;15.08;69.75;101236.94;5008656;28;20030;-64
2022/05/16 02:07:57;;;;;;;0.30;0.30;;;;;;;15.05;70.04;101232.28;5007987;28;20299;-64
2022/05/16 02:10:25;;;;;;;0.50;0.50;;;;;;;14.98;70.62;101231.41;4988679;28;20053;-63
2022/05/16 02:12:51;;;;;;;2.17;0.50;;;;;;;15.03;70.17;101228.38;4990000;28;20435;-63
2022/05/16 02:15:21;;;;;;;0.45;0.35;;;;;;;15.03;69.77;101234.56;5007493;28;20080;-65
2022/05/16 02:17:46;;;;;;;10.98;0.65;;;;;;;15.01;70.22;101231.47;5006963;28;20033;-64
2022/05/16 02:20:13;;;;;;;0.65;0.50;;;;;;;14.95;70.35;101226.72;5008915;28;20079;-64
2022/05/16 02:25:23;;;;;;;0.63;0.30;;;;;;;14.89;70.86;101222.78;5005898;28;20073;-65
2022/05/16 02:27:49;;;;;;;0.80;0.68;;;;;;;14.84;71.25;101225.81;5007413;28;20061;-64
2022/05/16 02:30:15;;;;;;;0.50;0.32;;;;;;;14.86;70.84;101227.03;5002639;28;21361;-65
2022/05/16 02:32:44;;;;;;;1.17;0.30;;;;;;;14.83;70.84;101227.75;5008340;28;20034;-63
2022/05/16 02:35:10;;;;;;;0.75;0.52;;;;;;;14.79;71.29;101226.16;5007605;28;20038;-63
2022/05/16 02:37:36;;;;;;;0.77;0.52;;;;;;;14.76;71.36;101216.81;5008841;28;20029;-65
2022/05/16 02:40:02;;;;;;;0.98;0.88;;;;;;;14.77;71.41;101207.50;5007565;28;20231;-62
2022/05/16 02:42:28;;;;;;;0.25;0.25;;;;;;;14.73;71.68;101219.50;5009386;28;20018;-63
2022/05/16 02:44:54;;;;;;;5.35;0.55;;;;;;;14.71;71.55;101216.38;5008636;28;20092;-63
2022/05/16 02:47:21;;;;;;;1.10;0.68;;;;;;;14.66;72.04;101211.25;5005355;28;20025;-63
2022/05/16 02:49:48;;;;;;;1.42;0.75;;;;;;;14.65;72.12;101212.41;5007512;28;20033;-63
2022/05/16 02:52:13;;;;;;;0.70;0.70;;;;;;;14.61;72.61;101211.59;5006221;28;20033;-63
2022/05/16 02:54:39;;;;;;;0.60;0.60;;;;;;;14.63;72.43;101214.72;5005836;28;20033;-63
2022/05/16 02:57:07;;;;;;;3.47;0.50;;;;;;;14.63;72.52;101214.72;4991980;28;20485;-62
2022/05/16 02:59:33;;;;;;;0.88;0.40;;;;;;;14.60;72.59;101226.25;5007481;28;20042;-63
2022/05/16 03:02:03;;;;;;;0.35;0.35;;;;;;;14.59;72.80;101224.72;5006780;28;20304;-63
2022/05/16 03:04:56;;;;;;;0.35;0.35;;;;;;;14.54;73.34;101219.63;5007223;28;20394;-62
2022/05/16 03:07:22;;;;;;;0.45;0.45;;;;;;;14.52;73.20;101221.94;5005889;28;20045;-63
2022/05/16 03:09:47;;;;;;;1.13;0.50;;;;;;;14.53;73.39;101215.34;5007539;28;20033;-63
2022/05/16 03:12:13;;;;;;;3.95;0.40;;;;;;;14.54;73.25;101216.91;5007631;28;20117;-63
2022/05/16 03:14:39;;;;;;;1.13;0.77;;;;;;;14.48;73.31;101217.22;5007903;28;20504;-64
2022/05/16 03:17:04;;;;;;;0.65;0.63;;;;;;;14.55;73.43;101203.00;5005552;28;20128;-63
2022/05/16 03:19:30;;;;;;;2.40;0.57;;;;;;;14.54;73.37;101195.25;5007013;28;20036;-64
2022/05/16 03:21:57;;;;;;;1.05;0.40;;;;;;;14.55;73.12;101197.56;4990863;28;20062;-63
2022/05/16 03:24:22;;;;;;;5.53;0.93;;;;;;;14.59;72.63;101203.03;4999632;28;20504;-63
2022/05/16 03:26:48;;;;;;;0.60;0.60;;;;;;;14.53;73.17;101204.50;5007325;28;20030;-63
2022/05/16 03:29:16;;;;;;;0.45;0.40;;;;;;;14.48;73.36;101198.25;5012165;28;20026;-63
2022/05/16 03:31:42;;;;;;;1.33;1.02;;;;;;;14.48;73.58;101199.41;5011691;28;20037;-63
2022/05/16 03:34:10;;;;;;;1.00;0.52;;;;;;;14.43;74.02;101187.75;5010333;28;20041;-63
2022/05/16 03:36:37;;;;;;;1.58;0.80;;;;;;;14.51;73.60;101196.75;4993786;28;20755;-62
2022/05/16 03:41:48;;;;;;;1.33;0.50;;;;;;;14.46;74.32;101189.72;5010032;28;20030;-62
2022/05/16 03:44:13;;;;;;;0.73;0.55;;;;;;;14.46;74.46;101194.34;5012234;28;20476;-63
2022/05/16 03:46:39;;;;;;;0.52;0.52;;;;;;;14.48;74.60;101199.41;5010348;28;20489;-63
2022/05/16 03:49:22;;;;;;;0.45;0.35;;;;;;;14.52;74.07;101200.25;5012110;28;20095;-63
2022/05/16 03:51:48;;;;;;;1.27;0.82;;;;;;;14.53;74.47;101196.38;5013078;28;20037;-63
2022/05/16 03:54:15;;;;;;;1.40;0.75;;;;;;;14.55;74.58;101192.16;5010266;28;20468;-63
2022/05/16 03:56:41;;;;;;;1.02;0.50;;;;;;;14.56;74.69;101182.06;4993746;28;20120;-64
2022/05/16 03:59:06;;;;;;;1.10;1.00;;;;;;;14.61;74.07;101193.41;4974991;28;20142;-63
2022/05/16 04:01:32;;;;;;;0.73;0.50;;;;;;;14.64;73.92;101203.50;4993469;28;20117;-63
2022/05/16 04:03:58;;;;;;;1.80;0.63;;;;;;;14.64;73.74;101198.06;4993575;28;20030;-63
2022/05/16 04:06:23;;;;;;;1.70;0.57;;;;;;;14.61;74.41;101190.69;5012477;28;20037;-64
2022/05/16 04:08:49;;;;;;;0.85;0.40;;;;;;;14.66;74.31;101181.44;4997610;28;20042;-63
2022/05/16 04:11:17;;;;;;;0.30;0.30;;;;;;;14.72;73.65;101190.78;5002806;28;20038;-64
2022/05/16 04:13:44;;;;;;;0.55;0.50;;;;;;;14.66;74.04;101190.34;5001894;28;20464;-64
2022/05/16 04:16:10;;;;;;;0.52;0.50;;;;;;;14.64;74.35;101179.09;5017895;28;20052;-64
2022/05/16 04:18:36;;;;;;;0.50;0.50;;;;;;;14.64;74.42;101186.44;5018648;28;20042;-63
2022/05/16 04:21:03;;;;;;;0.93;0.57;;;;;;;14.64;74.79;101181.00;5019512;28;20315;-64
2022/05/16 04:23:28;;;;;;;2.78;0.75;;;;;;;14.65;74.49;101180.66;5020409;28;20056;-64
2022/05/16 04:25:54;;;;;;;0.63;0.60;;;;;;;14.70;74.83;101171.41;5015736;28;20069;-63
2022/05/16 04:32:07;;;;;;;1.50;0.60;;;;;;;14.79;74.16;101180.06;5019726;28;20109;-63
2022/05/16 04:34:32;;;;;;;1.38;0.70;;;;;;;14.84;73.87;101171.56;5017779;28;20045;-64
2022/05/16 04:37:46;;;;;;;1.00;0.45;;;;;;;14.87;73.92;101176.25;5018502;28;20041;-64
2022/05/16 04:40:12;;;;;;;0.73;0.73;;;;;;;14.85;74.10;101167.69;5007601;28;20037;-63
2022/05/16 04:42:40;;;;;;;1.15;0.55;;;;;;;14.85;74.41;101168.50;5016185;28;20056;-64
2022/05/16 04:45:28;;;;;;;0.85;0.60;;;;;;;14.91;74.22;101169.72;5018680;28;20042;-65
2022/05/16 04:48:01;;;;;;;0.82;0.50;;;;;;;15.00;73.61;101172.16;5016130;28;20121;-64
2022/05/16 04:50:33;;;;;;;0.70;0.50;;;;;;;15.03;73.74;101168.69;5017297;28;20022;-64
2022/05/16 04:53:00;;;;;;;0.68;0.65;;;;;;;15.09;73.47;101172.63;5016482;28;20568;-64
2022/05/16 04:55:28;;;;;;;0.50;0.50;;;;;;;15.17;72.93;101169.63;5015285;28;20048;-64
2022/05/16 04:57:53;;;;;;;0.93;0.50;;;;;;;15.15;73.36;101179.28;5004657;28;20057;-64
2022/05/16 05:00:21;;;;;;;2.33;0.40;;;;;;;15.22;73.01;101182.06;5014405;28;20335;-65
2022/05/16 05:02:48;;;;;;;0.30;0.30;;;;;;;15.27;72.33;101187.16;5015558;28;20021;-64
2022/05/16 05:05:15;;;;;;;2.53;0.77;;;;;;;15.28;72.56;101183.28;4985956;28;20480;-63
2022/05/16 05:07:41;;;;;;;1.02;0.63;;;;;;;15.42;72.59;101194.31;5011703;28;20038;-63
2022/05/16 05:16:14;;;;;;;0.68;0.60;;;;;;;16.34;69.95;101186.84;5001585;28;20041;-64
2022/05/16 05:18:41;;;;;;;2.08;0.60;;;;;;;17.05;66.71;101181.31;4988613;28;20116;-63
2022/05/16 05:21:06;;;;;;;2.38;0.50;;;;;;;18.13;62.90;101184.50;5006814;28;21794;-63
2022/05/16 05:23:37;;;;;;;0.40;0.30;;;;;;;19.07;58.62;101174.41;4999434;28;20489;-64
2022/05/16 05:26:03;;;;;;;0.82;0.50;;;;;;;20.11;56.10;101170.47;5000962;28;20038;-64
2022/05/16 05:28:28;;;;;;;2.17;0.80;;;;;;;20.96;53.79;101181.22;5004882;28;20373;-64
2022/05/16 05:30:55;;;;;;;0.30;0.30;;;;;;;21.55;50.97;101174.84;5002806;28;20044;-64
2022/05/16 05:33:20;;;;;;;1.13;0.35;;;;;;;22.03;49.61;101187.38;5006546;28;20045;-65
2022/05/16 05:35:46;;;;;;;0.20;0.20;;;;;;;22.19;48.62;101196.50;5006939;28;20144;-64
2022/05/16 05:38:11;;;;;;;0.82;0.30;;;;;;;22.40;48.42;101190.59;5011366;28;20033;-64
2022/05/16 05:40:37;;;;;;;0.70;0.30;;;;;;;22.78;47.58;101196.53;4997333;28;20497;-64
2022/05/16 05:43:04;;;;;;;0.82;0.63;;;;;;;23.05;46.58;101185.34;5011404;28;20045;-64
2022/05/16 05:45:30;;;;;;;0.60;0.22;;;;;;;23.21;46.30;101179.84;5025158;28;20128;-65
2022/05/16 05:47:56;;;;;;;2.30;0.32;;;;;;;23.16;45.48;101181.16;5009560;28;20104;-66
2022/05/16 05:50:21;;;;;;;0.50;0.30;;;;;;;22.99;46.29;101182.34;5016010;28;20528;-65
2022/05/16 05:52:47;;;;;;;0.35;0.32;;;;;;;23.02;46.87;101181.47;5016247;28;20563;-65
2022/05/16 05:55:12;;;;;;;0.45;0.20;;;;;;;23.00;46.63;101161.88;5012899;28;20269;-64
2022/05/16 05:57:38;;;;;;;1.48;0.40;;;;;;;22.92;46.95;101171.47;5020764;28;20033;-64
2022/05/16 06:00:25;;;;;;;0.30;0.30;;;;;;;22.89;46.40;101175.09;5017829;28;20088;-68
2022/05/16 06:03:46;;;;;;;0.38;0.30;;;;;;;22.75;47.07;101177.34;4943530;29;20066;-64
2022/05/16 06:06:11;;;;;;;0.28;0.20;;;;;;;22.53;47.80;101170.75;4943540;29;20530;-64
2022/05/16 06:08:37;;;;;;;0.73;0.40;;;;;;;22.31;48.00;101164.91;4946997;29;20047;-64
2022/05/16 06:11:02;;;;;;;1.27;0.45;;;;;;;22.22;48.14;101156.47;4936631;29;20032;-64
2022/05/16 06:13:29;;;;;;;0.22;0.22;;;;;;;22.11;47.88;101172.31;4932716;29;20075;-63
2022/05/16 06:15:54;;;;;;;1.88;0.30;;;;;;;21.89;48.87;101171.19;4939522;29;20051;-64
2022/05/16 06:18:20;;;;;;;0.28;0.28;;;;;;;21.76;48.93;101161.97;4945746;29;20126;-64
2022/05/16 06:20:45;;;;;;;0.47;0.28;;;;;;;21.63;49.38;101167.28;4933608;29;20558;-64
2022/05/16 06:23:11;;;;;;;0.38;0.32;;;;;;;21.48;50.38;101169.50;4941650;29;20098;-64
2022/05/16 06:25:42;;;;;;;2.50;0.25;;;;;;;21.48;50.89;101164.00;4930078;29;20074;-64
2022/05/16 06:28:16;;;;;;;0.85;0.38;;;;;;;21.52;49.97;101152.97;4924053;29;20411;-64
2022/05/16 06:30:44;;;;;;;0.15;0.15;;;;;;;21.41;50.82;101160.59;4930701;29;20039;-64
2022/05/16 06:33:10;;;;;;;0.20;0.10;;;;;;;21.41;50.91;101157.84;4930193;29;20388;-64
2022/05/16 06:35:37;;;;;;;0.38;0.30;;;;;;;21.47;51.34;101161.66;4932392;29;20043;-64
2022/05/16 06:38:06;;;;;;;1.10;0.28;;;;;;;21.53;50.46;101166.25;4930928;29;20051;-64
2022/05/16 06:40:32;;;;;;;0.40;0.25;;;;;;;21.48;50.97;101163.22;5008439;28;20049;-64
2022/05/16 06:47:01;;;;;;;0.73;0.30;;;;;;;21.44;51.80;101173.47;4954049;28;20038;-64
2022/05/16 06:49:26;;;;;;;0.60;0.30;;;;;;;21.53;51.62;101174.50;4965347;28;20051;-64
2022/05/16 06:51:52;;;;;;;0.32;0.30;;;;;;;21.70;51.15;101174.63;4946126;28;20121;-64
2022/05/16 06:54:17;;;;;;;0.30;0.30;;;;;;;21.72;51.10;101164.75;4957857;28;20082;-64
2022/05/16 06:56:42;;;;;;;1.25;0.50;;;;;;;21.76;51.08;101162.75;4948639;28;20063;-64
2022/05/16 06:59:08;;;;;;;0.43;0.30;;;;;;;21.82;51.15;101161.09;4965469;28;20058;-64
2022/05/16 07:01:34;;;;;;;2.95;0.28;;;;;;;21.89;51.09;101171.19;4962302;28;20047;-64
2022/05/16 07:03:59;;;;;;;0.47;0.30;;;;;;;21.99;50.72;101168.22;4965672;28;20049;-64
2022/05/16 07:06:25;;;;;;;0.35;0.30;;;;;;;21.93;50.51;101169.91;4937625;28;20045;-63
2022/05/16 07:08:50;;;;;;;0.50;0.40;;;;;;;22.02;51.11;101167.41;4960522;28;20071;-64
2022/05/16 07:11:15;;;;;;;0.60;0.20;;;;;;;22.14;50.66;101175.00;4958963;28;20497;-64
2022/05/16 07:13:41;;;;;;;0.75;0.40;;;;;;;22.23;50.06;101166.22;4969420;28;20121;-64
2022/05/16 07:16:06;;;;;;;1.08;0.47;;;;;;;22.33;50.30;101176.22;4944272;28;20058;-63
2022/05/16 07:18:32;;;;;;;1.17;0.20;;;;;;;22.37;49.55;101164.00;4956481;28;20042;-64
2022/05/16 07:20:59;;;;;;;0.20;0.20;;;;;;;22.48;49.54;101168.47;5022466;28;20404;-64
2022/05/16 07:23:26;;;;;;;2.67;0.65;;;;;;;22.51;50.19;101168.44;5030692;28;20037;-64
2022/05/16 07:28:36;;;;;;;0.88;0.40;;;;;;;22.74;50.38;101165.63;5025155;28;20064;-64
2022/05/16 07:31:02;;;;;;;1.10;0.30;;;;;;;22.98;49.11;101161.53;5028758;28;20064;-64
2022/05/16 07:33:27;;;;;;;0.75;0.43;;;;;;;23.08;48.59;101165.25;5027435;28;20401;-64
2022/05/16 07:35:55;;;;;;;0.60;0.60;;;;;;;23.11;48.98;101173.41;5028573;28;20451;-64
2022/05/16 07:38:22;;;;;;;2.08;0.57;;;;;;;23.12;48.79;101180.47;5031007;28;20103;-64
2022/05/16 07:40:48;;;;;;;2.58;0.30;;;;;;;23.16;49.84;101175.66;5024481;28;20073;-64
2022/05/16 07:43:14;;;;;;;0.25;0.20;;;;;;;23.19;49.98;101185.00;5017846;28;20099;-64
2022/05/16 07:45:39;;;;;;;1.25;0.40;;;;;;;23.17;49.43;101177.19;5019694;28;20030;-65
2022/05/16 07:48:05;;;;;;;1.13;0.40;;;;;;;23.33;48.45;101168.22;5020700;28;20042;-64
2022/05/16 07:50:32;;;;;;;0.20;0.20;;;;;;;23.40;48.66;101164.53;5020823;28;20109;-65
2022/05/16 07:52:58;;;;;;;0.68;0.40;;;;;;;23.46;48.04;101166.31;5025834;28;20585;-64
2022/05/16 07:55:26;;;;;;;0.25;0.20;;;;;;;23.45;47.38;101166.75;5030297;28;20069;-64
2022/05/16 07:57:52;;;;;;;0.20;0.20;;;;;;;23.40;47.05;101167.28;5012179;28;20119;-63
2022/05/16 08:00:19;;;;;;;1.45;0.43;;;;;;;23.35;48.02;101163.06;5017185;28;20045;-63
2022/05/16 08:02:44;;;;;;;0.45;0.20;;;;;;;23.49;48.05;101167.44;5019766;28;20050;-64
2022/05/16 08:05:12;;;;;;;0.32;0.20;;;;;;;23.56;47.08;101148.00;5023428;28;20068;-63
2022/05/16 08:10:29;;;;;;;0.20;0.10;;;;;;;23.65;46.96;101150.94;5014930;28;20049;-63
2022/05/16 08:10:30;;;;;;;1.50;0.32;;;;;;;23.76;46.64;101143.19;5022689;28;20044;-63
2022/05/16 08:13:01;;;;;;;0.40;0.30;;;;;;;23.93;47.08;101139.19;5027320;28;20053;-64
2022/05/16 08:15:28;;;;;;;2.28;0.60;;;;;;;24.07;46.10;101145.13;5016844;28;20046;-64
2022/05/16 08:17:54;;;;;;;0.50;0.20;;;;;;;24.23;46.98;101151.78;5022505;28;20111;-63
2022/05/16 08:20:20;;;;;;;0.65;0.20;;;;;;;24.34;46.03;101147.53;5025017;28;20029;-63
2022/05/16 08:22:46;;;;;;;0.52;0.40;;;;;;;24.53;46.93;101149.31;5003921;28;20061;-64
2022/05/16 08:25:11;;;;;;;0.50;0.20;;;;;;;24.71;45.51;101151.56;5026289;28;20049;-64
2022/05/16 08:27:37;;;;;;;0.57;0.40;;;;;;;24.89;44.46;101149.06;5015480;28;20042;-63
2022/05/16 08:30:03;;;;;;;1.70;0.40;;;;;;;24.88;45.14;101147.53;5023127;28;20030;-63
2022/05/16 08:32:29;;;;;;;0.43;0.30;;;;;;;24.86;44.55;101141.69;5022363;28;20034;-64
2022/05/16 08:35:03;;;;;;;1.67;0.38;;;;;;;24.89;44.76;101154.59;5028035;28;20065;-64
2022/05/16 08:40:13;;;;;;;0.90;0.50;;;;;;;25.18;43.59;101140.69;5013931;28;20037;-64
2022/05/16 08:42:53;;;;;;;1.58;0.40;;;;;;;25.36;43.72;101146.41;5025133;28;20044;-64
2022/05/16 08:45:38;;;;;;;0.15;0.15;;;;;;;25.49;43.05;101145.19;5028675;28;20033;-63
2022/05/16 08:48:08;;;;;;;0.20;0.20;;;;;;;25.64;43.69;101142.72;5026570;28;20046;-64
2022/05/16 08:50:49;;;;;;;0.52;0.30;;;;;;;25.86;43.75;101129.75;5022155;28;20036;-63
2022/05/16 08:54:08;;;;;;;0.83;0.23;;;;;;;25.99;41.32;101124.94;5018722;28;20095;-64
2022/05/16 08:56:36;;;;;;;0.32;0.30;;;;;;;26.08;42.46;101133.31;5011172;28;20033;-63
2022/05/16 09:02:26;;;;;;;0.57;0.40;;;;;;;26.30;41.51;101133.31;5015253;28;20392;-64
2022/05/16 09:05:20;;;;;;;0.17;0.17;;;;;;;26.18;41.46;101134.16;5025555;28;20041;-64
2022/05/16 09:07:50;;;;;;;0.90;0.43;;;;;;;26.07;42.21;101137.31;5017516;28;20048;-65
2022/05/16 09:10:17;;;;;;;0.40;0.20;;;;;;;26.14;42.76;101142.56;5024536;28;20041;-65
2022/05/16 09:12:59;;;;;;;0.93;0.40;;;;;;;26.06;41.94;101134.97;5011341;28;20034;-64
2022/05/16 09:15:36;;;;;;;0.28;0.20;;;;;;;26.05;42.70;101128.66;5008429;28;20467;-64
2022/05/16 09:18:14;;;;;;;0.38;0.30;;;;;;;26.18;42.95;101137.69;5019755;28;20508;-64
2022/05/16 09:20:45;;;;;;;0.30;0.30;;;;;;;26.33;42.10;101132.41;5023305;28;20408;-64
2022/05/16 09:23:33;;;;;;;0.30;0.25;;;;;;;26.44;39.66;101141.09;5021590;28;20046;-63
2022/05/16 09:26:09;;;;;;;0.40;0.28;;;;;;;26.50;39.60;101119.94;5009819;28;20460;-63
2022/05/16 09:28:42;;;;;;;0.38;0.38;;;;;;;26.52;41.38;101129.28;5013509;28;20038;-63
2022/05/16 09:31:21;;;;;;;0.30;0.30;;;;;;;26.64;41.30;101120.16;5025180;28;20041;-64
2022/05/16 09:33:51;;;;;;;1.25;0.57;;;;;;;26.75;40.73;101128.06;5014962;28;20365;-63
2022/05/16 09:36:24;;;;;;;0.10;0.10;;;;;;;26.98;40.80;101124.78;5015983;28;20041;-63
2022/05/16 09:38:49;;;;;;;2.13;0.25;;;;;;;27.12;40.33;101137.28;5030045;28;20037;-63
2022/05/16 09:41:19;;;;;;;1.10;0.30;;;;;;;27.14;40.03;101121.00;5014833;28;20112;-64
2022/05/16 09:43:52;;;;;;;0.43;0.25;;;;;;;27.18;39.29;101119.63;5016000;28;20041;-64
2022/05/16 09:46:33;;;;;;;0.55;0.30;;;;;;;27.26;41.42;101115.34;5012847;28;20041;-64
2022/05/16 09:49:04;;;;;;;0.25;0.25;;;;;;;27.56;39.69;101119.25;5017665;28;20041;-64
2022/05/16 09:51:30;;;;;;;0.95;0.22;;;;;;;27.67;39.39;101117.59;5024484;28;20038;-64
2022/05/16 09:54:10;;;;;;;0.30;0.30;;;;;;;27.92;39.32;101116.50;5026745;28;20492;-63
2022/05/16 09:56:35;;;;;;;0.20;0.20;;;;;;;27.97;39.33;101101.28;5016915;28;20041;-63
2022/05/16 09:59:01;;;;;;;1.10;0.30;;;;;;;28.08;38.42;101096.81;5021198;28;20044;-64
2022/05/16 10:01:45;;;;;;;0.65;0.32;;;;;;;28.24;39.21;101096.47;5015909;28;20036;-63
2022/05/16 10:04:19;;;;;;;0.43;0.40;;;;;;;28.23;37.60;101105.25;5011660;28;20033;-64
2022/05/16 10:06:56;;;;;;;0.30;0.20;;;;;;;28.43;100.00;101102.75;5018829;28;20096;-64
2022/05/16 10:09:36;;;;;;;0.30;0.20;;;;;;;28.51;100.00;101095.63;5026945;28;20068;-64
2022/05/16 10:12:04;;;;;;;0.47;0.20;;;;;;;28.56;100.00;100912.19;5029296;28;20121;-63
2022/05/16 10:14:30;;;;;;;0.65;0.20;;;;;;;28.52;100.00;68972.22;5021347;28;20025;-64
2022/05/16 10:16:56;;;;;;;0.47;0.22;;;;;;;28.71;100.00;100934.41;5012231;28;20042;-64
2022/05/16 10:19:26;;;;;;;1.25;0.30;;;;;;;28.77;38.14;101090.47;5012493;28;20044;-64
2022/05/16 10:22:17;;;;;;;0.63;0.20;;;;;;;28.94;36.61;101092.38;5025653;28;20489;-64
2022/05/16 10:24:52;;;;;;;0.45;0.20;;;;;;;29.06;36.45;101082.28;5022124;28;20041;-63
2022/05/16 10:27:28;;;;;;;0.10;0.10;;;;;;;29.21;36.01;101083.94;5013389;28;20042;-63
2022/05/16 10:29:57;;;;;;;0.20;0.20;;;;;;;29.28;35.30;101080.81;5025532;28;20025;-63
2022/05/16 10:35:11;;;;;;;2.67;0.20;;;;;;;29.27;35.48;101084.03;5066409;22;20528;-64
2022/05/16 10:37:43;;;;;;;0.73;0.30;;;;;;;29.22;35.27;101073.59;5016340;28;20069;-63
2022/05/16 10:40:34;;;;;;;0.80;0.30;;;;;;;29.23;35.18;101075.13;5001287;28;20137;-65
2022/05/16 10:43:35;;;;;;;0.10;0.10;;;;;;;29.34;35.48;101075.38;5023252;28;20041;-63
2022/05/16 10:46:10;;;;;;;0.50;0.27;;;;;;;29.40;34.94;101071.44;5005456;28;20034;-62
2022/05/16 10:48:44;;;;;;;0.30;0.20;;;;;;;29.43;35.64;101058.63;5009783;28;20357;-62
2022/05/16 10:51:18;;;;;;;2.33;0.22;;;;;;;29.70;34.22;101069.53;5012118;28;20515;-62
2022/05/16 10:53:49;;;;;;;0.20;0.20;;;;;;;29.81;34.23;101069.75;5030580;28;20037;-64
2022/05/16 10:56:21;;;;;;;;;;;;;;;29.82;33.58;101062.19;5024515;28;20041;-64
2022/05/16 10:58:58;;;;;;;0.98;0.30;;;;;;;29.90;34.23;101069.69;5005628;28;19917;-65
2022/05/16 11:01:29;;;;;;;1.38;0.50;;;;;;;29.91;35.06;101064.88;5018229;28;20083;-66
2022/05/16 11:04:16;;;;;;;2.40;0.30;;;;;;;30.02;34.18;101065.09;4989814;28;20034;-66
2022/05/16 11:06:50;;;;;;;0.75;0.22;;;;;;;30.05;33.60;101059.34;5028587;28;20053;-63
2022/05/16 11:09:23;;;;;;;0.50;0.43;;;;;;;30.23;33.37;101056.38;5037264;28;20037;-64
2022/05/16 11:11:59;;;;;;;0.47;0.30;;;;;;;30.32;33.40;101061.06;5013830;28;20149;-65
2022/05/16 11:14:48;;;;;;;0.20;0.20;;;;;;;30.29;32.99;101052.94;5013888;28;20045;-65
2022/05/16 11:17:21;;;;;;;0.20;0.20;;;;;;;30.22;34.64;101057.59;5013948;28;20037;-66
2022/05/16 11:20:08;;;;;;;0.10;0.10;;;;;;;30.48;34.28;101059.81;5023436;28;20045;-64
2022/05/16 11:22:58;;;;;;;0.20;0.20;;;;;;;30.56;34.10;101055.38;5017747;28;20038;-66
2022/05/16 11:25:39;;;;;;;0.30;0.30;;;;;;;30.68;33.29;101037.63;5013486;28;20117;-66
2022/05/16 11:28:33;;;;;;;0.90;0.88;;;;;;;30.69;34.03;101033.56;5018815;28;20029;-65
2022/05/16 11:31:16;;;;;;;0.65;0.55;;;;;;;30.91;33.97;101031.13;5014462;28;20026;-66
2022/05/16 11:33:54;;;;;;;0.40;0.30;;;;;;;31.07;32.82;101033.34;5013806;28;20072;-64
2022/05/16 11:36:32;;;;;;;0.10;0.10;;;;;;;31.04;32.90;101031.56;5013211;28;20052;-65
2022/05/16 11:39:11;;;;;;;0.30;0.30;;;;;;;30.95;33.20;101017.78;4997240;28;20040;-66
2022/05/16 11:41:48;;;;;;;0.98;0.40;;;;;;;31.09;33.63;101014.16;5021832;28;20049;-66
2022/05/16 11:44:42;;;;;;;0.28;0.28;;;;;;;31.25;33.09;101013.59;5019506;28;20305;-66
2022/05/16 11:47:29;;;;;;;0.57;0.30;;;;;;;31.22;32.60;101011.78;5016457;28;20423;-66
2022/05/16 11:50:18;;;;;;;1.88;0.40;;;;;;;31.05;32.52;101005.22;5008435;28;20116;-66
2022/05/16 11:52:53;;;;;;;1.27;0.30;;;;;;;30.84;33.11;101000.91;5015685;28;20025;-66
2022/05/16 12:01:05;;;;;;;0.45;0.30;;;;;;;30.77;33.88;101004.09;5024380;28;20053;-66
2022/05/16 12:03:41;;;;;;;0.50;0.25;;;;;;;30.70;33.32;101010.81;5018968;28;20041;-67
2022/05/16 12:06:31;;;;;;;0.50;0.43;;;;;;;30.60;32.94;101009.44;5021465;28;20546;-68
2022/05/16 12:09:23;;;;;;;0.30;0.30;;;;;;;30.41;34.45;101018.50;5025674;28;20052;-66
2022/05/16 12:12:00;;;;;;;0.32;0.15;;;;;;;30.46;33.48;101010.22;5021632;28;20042;-66
2022/05/16 12:14:37;;;;;;;0.50;0.30;;;;;;;30.43;33.28;101013.22;5024033;28;20040;-66
2022/05/16 12:17:16;;;;;;;0.30;0.30;;;;;;;30.32;33.00;101013.81;5010090;28;20095;-66
2022/05/16 12:19:51;;;;;;;0.50;0.50;;;;;;;30.27;33.13;101014.47;5002264;28;20042;-65